• Join FlightAware (Why Join?)
  • Login
  • US Flag 
11:52PM EDT


 

Airport Tracker/Info


-or-


 

Live Flight TrackerFlight Track Log ✈ N662US ✈ 11-Jun-2013 ✈ RJAA / NRT - KSEA

Flight Track Log - Related Links

Times and Time Zones

All times are in EDT time to prevent confusion due to time zone crossing. See the N662US flight status page for this flight to view local times or setup timezone preferences in your user account.

Time Position Orientation Groundspeed Altitude Reporting Facility
EDT Latitude Longitude Course Direction KTS MPH feet Rate Location/Type
02:42AM 35.7010 140.4210 146° Southeast 172 198 2,200  Level FlightAware
02:42AM 35.6790 140.4370 149° Southeast 174 200 3,100 1,380 Climbing FlightAware
02:43AM 35.6580 140.4530 148° Southeast 191 220 3,600 900 Climbing FlightAware
02:43AM 35.6300 140.4730 150° Southeast 229 264 4,000 840 Climbing FlightAware
02:44AM 35.6110 140.4860 151° Southeast 249 287 4,300 1,500 Climbing FlightAware
02:44AM 35.5740 140.5160 147° Southeast 279 321 5,400 1,980 Climbing FlightAware
02:44AM 35.5670 140.5300 122° Southeast 287 330 5,800 2,400 Climbing FlightAware
02:45AM 35.5600 140.5650 104° East 302 348 6,600 1,620 Climbing FlightAware
02:45AM 35.5540 140.6080 100° East 319 367 7,000 480 Climbing FlightAware
02:46AM 35.5490 140.6570 97° East 364 419 7,000  Level FlightAware
02:46AM 35.5410 140.7160 99° East 398 458 7,000  Level FlightAware
02:47AM 35.5320 140.7900 98° East 399 459 7,000 180 Level FlightAware
02:47AM 35.5260 140.8370 99° East 403 464 7,200 1,800 Climbing FlightAware
02:47AM 35.5170 140.9040 99° East 409 471 8,500 2,580 Climbing FlightAware
02:48AM 35.5100 140.9590 99° East 415 478 9,600 2,460 Climbing FlightAware
02:49AM 35.4940 141.0750 100° East 431 496 11,600 2,460 Climbing FlightAware
02:49AM 35.4710 141.1680 107° East 438 504 13,200 2,220 Climbing FlightAware
02:50AM 35.4370 141.2780 111° Southeast 456 525 14,800 1,980 Climbing FlightAware
02:51AM 35.4090 141.3690 111° Southeast 468 539 16,100 1,920 Climbing FlightAware
02:51AM 35.3730 141.4870 110° East 474 545 17,500 1,680 Climbing FlightAware
02:52AM 35.3460 141.5760 110° East 490 564 18,400 1,500 Climbing FlightAware
02:53AM 35.3100 141.6900 111° Southeast 508 585 19,500 1,560 Climbing FlightAware
02:54AM 35.2690 141.8240 111° Southeast 518 596 20,800 1,440 Climbing FlightAware
02:55AM 35.2130 142.0030 111° Southeast 504 580 22,200 1,380 Climbing FlightAware
02:56AM 35.1670 142.2600 102° East 555 639 24,300 1,380 Climbing FlightAware
02:57AM 35.1790 142.4840 86° East 563 648 25,900 840 Climbing FlightAware
02:58AM 35.1850 142.5900 86° East 563 648 25,900 1,440 Level FlightAware
02:59AM 35.1970 142.8060 86° East 560 644 28,400 1,980 Climbing FlightAware
03:00AM 35.2300 142.9070 68° East 550 633 29,100 660 Climbing FlightAware
03:00AM 35.2640 142.9680 56° Northeast 550 633 29,100  Level FlightAware
03:01AM 35.3220 143.0740 56° Northeast 550 633 29,100  Level FlightAware
03:02AM 35.3780 143.1750 56° Northeast 550 633 29,100  Level FlightAware
03:02AM 35.4210 143.2540 56° Northeast 550 633 29,100  Level FlightAware
03:03AM 35.4790 143.3600 56° Northeast 550 633 29,100  Level FlightAware
05:12AM 47.5500 161.3333 55° Northeast 527 606 34,000  Climbing Anchorage Center
05:22AM 48.4167 163.2000 56° Northeast 527 606 34,000  Level Anchorage Center
05:38AM 49.7000 166.2167 58° Northeast 537 618 34,000  Level Anchorage Center
05:49AM 50.5000 168.3167 60° Northeast 536 617 34,000 60 Level Anchorage Center
05:51AM 50.6833 168.8000 60° Northeast 540 621 35,000 180 Climbing Anchorage Center
05:53AM 50.8167 169.2000 62° Northeast 540 621 35,000  Level Anchorage Center
05:54AM 50.8833 169.3833 60° Northeast 550 633 35,000  Level Anchorage Center
05:55AM 50.9667 169.6167 60° Northeast 550 633 35,000  Level Anchorage Center
05:56AM 51.0333 169.8000 60° Northeast 550 633 35,000  Level Anchorage Center
05:57AM 51.1000 170.0333 65° Northeast 550 633 35,000  Level Anchorage Center
05:58AM 51.1833 170.2167 54° Northeast 560 644 35,000  Level Anchorage Center
05:59AM 51.2667 170.4333 58° Northeast 550 633 35,000  Level Anchorage Center
06:00AM 51.3333 170.6667 65° Northeast 560 644 35,000  Level Anchorage Center
06:01AM 51.4000 170.8667 45° Northeast 560 644 35,000  Level Anchorage Center
06:02AM 51.4833 171.1000 60° Northeast 550 633 35,000  Level Anchorage Center
06:03AM 51.5167 171.3000 75° East 550 633 35,000  Level Anchorage Center
06:04AM 51.5333 171.5833 84° East 570 656 35,000  Level Anchorage Center
06:05AM 51.5500 171.8000 83° East 580 667 35,000  Level Anchorage Center
06:06AM 51.5667 172.0833 84° East 580 667 35,000  Level Anchorage Center
06:07AM 51.6000 172.3500 79° East 570 656 35,000  Level Anchorage Center
06:08AM 51.6167 172.5833 83° East 580 667 35,000  Level Anchorage Center
06:09AM 51.6333 172.8500 84° East 570 656 35,000  Level Anchorage Center
06:10AM 51.6500 173.0667 83° East 580 667 35,000  Level Anchorage Center
06:11AM 51.6667 173.3500 84° East 580 667 35,000  Level Anchorage Center
06:12AM 51.6833 173.5667 83° East 580 667 35,000  Level Anchorage Center
06:13AM 51.7167 173.8500 79° East 580 667 35,000  Level Anchorage Center
06:14AM 51.7333 174.1333 84° East 580 667 35,000  Level Anchorage Center
06:15AM 51.7333 174.3500 90° East 580 667 35,000  Level Anchorage Center
06:16AM 51.7500 174.6333 84° East 580 667 35,000  Level Anchorage Center
06:17AM 51.7667 174.8500 83° East 570 656 35,000  Level Anchorage Center
06:18AM 51.7833 175.1333 84° East 570 656 35,000  Level Anchorage Center
06:19AM 51.8000 175.3500 83° East 570 656 35,000  Level Anchorage Center
06:20AM 51.8167 175.6333 84° East 580 667 35,000  Level Anchorage Center
06:21AM 51.8333 175.9167 84° East 580 667 35,000  Level Anchorage Center
06:22AM 51.8333 176.1500 90° East 580 667 35,000  Level Anchorage Center
06:23AM 51.8500 176.4333 84° East 570 656 35,000  Level Anchorage Center
06:24AM 51.8667 176.6500 83° East 570 656 35,000  Level Anchorage Center
06:25AM 51.8833 176.9333 84° East 580 667 35,000  Level Anchorage Center
06:26AM 51.8833 177.1667 90° East 580 667 35,000  Level Anchorage Center
06:27AM 51.9000 177.4500 84° East 580 667 35,000  Level Anchorage Center
06:28AM 51.9167 177.6667 83° East 580 667 35,000  Level Anchorage Center
06:29AM 51.9333 177.9500 84° East 570 656 35,000  Level Anchorage Center
06:30AM 51.9500 178.2333 84° East 560 644 35,000  Level Anchorage Center
06:31AM 51.9667 178.4500 83° East 570 656 35,000  Level Anchorage Center
06:32AM 51.9667 178.7333 90° East 570 656 35,000  Level Anchorage Center
06:33AM 51.9833 178.9500 83° East 570 656 35,000  Level Anchorage Center
06:34AM 52.0000 179.2333 84° East 560 644 35,000  Level Anchorage Center
06:35AM 52.0000 179.4500 90° East 560 644 35,000  Level Anchorage Center
06:36AM 52.0167 179.7333 84° East 550 633 35,000  Level Anchorage Center
06:37AM 52.0333 -179.9833 84° East 540 621 35,000  Level Anchorage Center
06:38AM 52.0333 -179.7667 90° East 530 610 35,000  Level Anchorage Center
06:39AM 52.0500 -179.5667 82° East 530 610 35,000  Level Anchorage Center
06:41AM 52.0970 -179.2335 77° East  Level FlightAware Approximate
06:42AM 52.0833 -178.8167 87° East 531 611 35,000  Level Anchorage Center
06:48AM 52.1146 -177.3867 89° East 531 611 35,000  Level FlightAware Transoceanic
06:49AM 52.1181 -177.1482 89° East 531 611 35,000  Level FlightAware Transoceanic
06:50AM 52.1211 -176.9097 89° East 531 611 35,000  Level FlightAware Transoceanic
06:51AM 52.1237 -176.6711 89° East 531 611 35,000  Level FlightAware Transoceanic
06:52AM 52.1258 -176.4325 89° East 531 611 35,000  Level FlightAware Transoceanic
06:53AM 52.1273 -176.1939 89° East 531 611 35,000  Level FlightAware Transoceanic
06:54AM 52.1285 -175.9553 90° East 531 611 35,000  Level FlightAware Transoceanic
06:55AM 52.1291 -175.7166 90° East 531 611 35,000  Level FlightAware Transoceanic
06:56AM 52.1292 -175.4780 90° East 531 611 35,000  Level FlightAware Transoceanic
06:57AM 52.1289 -175.2394 90° East 531 611 35,000  Level FlightAware Transoceanic
06:58AM 52.1281 -175.0007 90° East 531 611 35,000  Level FlightAware Transoceanic
06:59AM 52.1268 -174.7621 91° East 531 611 35,000  Level FlightAware Transoceanic
07:00AM 52.1250 -174.5235 91° East 531 611 35,000  Level FlightAware Transoceanic
07:01AM 52.1228 -174.2849 91° East 531 611 35,000  Level FlightAware Transoceanic
07:02AM 52.1200 -174.0464 91° East 531 611 35,000  Level FlightAware Transoceanic
07:03AM 52.1168 -173.8078 91° East 531 611 35,000  Level FlightAware Transoceanic
07:04AM 52.1131 -173.5694 92° East 531 611 35,000  Level FlightAware Transoceanic
07:05AM 52.1089 -173.3309 92° East 531 611 35,000  Level FlightAware Transoceanic
07:06AM 52.1043 -173.0925 92° East 531 611 35,000  Level FlightAware Transoceanic
07:07AM 52.0991 -172.8542 92° East 531 611 35,000  Level FlightAware Transoceanic
07:08AM 52.0935 -172.6159 92° East 531 611 35,000  Level FlightAware Transoceanic
07:09AM 52.0874 -172.3777 92° East 531 611 35,000  Level FlightAware Transoceanic
07:09AM 52.0833 -172.5167 92° East 494 568 35,000  Level Anchorage Center
07:10AM 52.0808 -172.1395 93° East 531 611 35,000  Level FlightAware Transoceanic
07:11AM 52.0737 -171.9014 93° East 531 611 35,000  Level FlightAware Transoceanic
07:12AM 52.0662 -171.6634 93° East 531 611 35,000  Level FlightAware Transoceanic
07:13AM 52.0582 -171.4255 93° East 531 611 35,000  Level FlightAware Transoceanic
07:14AM 52.0497 -171.1877 93° East 531 611 35,000  Level FlightAware Transoceanic
07:15AM 52.0445 -171.1428 93° East 494 568 35,000  Level FlightAware Transoceanic
07:16AM 52.0365 -170.9140 93° East 494 568 35,000  Level FlightAware Transoceanic
07:17AM 52.0280 -170.6854 94° East 494 568 35,000  Level FlightAware Transoceanic
07:18AM 52.0191 -170.4568 94° East 494 568 35,000  Level FlightAware Transoceanic
07:19AM 52.0098 -170.2284 94° East 494 568 35,000  Level FlightAware Transoceanic
07:20AM 52.0000 -170.0000 86° East 494 568 35,000  Level FlightAware Transoceanic
07:21AM 52.0098 -169.7626 86° East 494 568 35,000  Level FlightAware Transoceanic
07:22AM 52.0192 -169.5251 86° East 494 568 35,000  Level FlightAware Transoceanic
07:22AM 52.0000 -170.0000 86° East 498 573 35,000  Level Anchorage Center
07:23AM 52.0281 -169.2875 87° East 494 568 35,000  Level FlightAware Transoceanic
07:24AM 52.0365 -169.0498 87° East 494 568 35,000  Level FlightAware Transoceanic
07:25AM 52.0444 -168.8121 87° East 494 568 35,000  Level FlightAware Transoceanic
07:25AM 52.0333 -169.1000 87° East 498 573 35,000  Level Anchorage Center
07:26AM 52.0518 -168.5742 87° East 494 568 35,000  Level FlightAware Transoceanic
07:27AM 52.0588 -168.3363 87° East 494 568 35,000  Level FlightAware Transoceanic
07:28AM 52.0619 -168.2252 87° East 498 573 35,000  Level FlightAware Transoceanic
07:29AM 52.0678 -168.0030 88° East 498 573 35,000  Level FlightAware Transoceanic
07:30AM 52.0732 -167.7808 88° East 498 573 35,000  Level FlightAware Transoceanic
07:31AM 52.0781 -167.5088 88° East 498 573 35,000  Level FlightAware Transoceanic
07:32AM 52.0828 -167.2812 88° East 498 573 35,000  Level FlightAware Transoceanic
07:33AM 52.0870 -167.0536 88° East 498 573 35,000  Level FlightAware Transoceanic
07:34AM 52.0908 -166.8260 89° East 498 573 35,000  Level FlightAware Transoceanic
07:35AM 52.0941 -166.5983 89° East 498 573 35,000  Level FlightAware Transoceanic
07:35AM 52.1000 -166.6333 89° East 496 571 35,000  Level Anchorage Center
07:36AM 52.0970 -166.3706 89° East 498 573 35,000  Level FlightAware Transoceanic
07:37AM 52.0994 -166.1428 89° East 498 573 35,000  Level FlightAware Transoceanic
07:38AM 52.1015 -165.9151 89° East 498 573 35,000  Level FlightAware Transoceanic
07:39AM 52.1031 -165.6873 89° East 498 573 35,000  Level FlightAware Transoceanic
07:40AM 52.1042 -165.4595 90° East 498 573 35,000  Level FlightAware Transoceanic
07:41AM 52.1049 -165.2317 90° East 498 573 35,000  Level FlightAware Transoceanic
07:42AM 52.1099 -165.2594 90° East 496 571 35,000  Level FlightAware Transoceanic
07:43AM 52.1100 -165.0303 90° East 496 571 35,000  Level FlightAware Transoceanic
07:44AM 52.1096 -164.8013 90° East 496 571 35,000  Level FlightAware Transoceanic
07:45AM 52.1088 -164.5723 90° East 496 571 35,000  Level FlightAware Transoceanic
07:46AM 52.1076 -164.3433 91° East 496 571 35,000  Level FlightAware Transoceanic
07:47AM 52.1059 -164.1143 91° East 496 571 35,000  Level FlightAware Transoceanic
07:47AM 52.1000 -164.1333 91° East 496 571 35,000  Level Oakland Oceanic (ODAPS)
07:48AM 52.1038 -163.8853 91° East 496 571 35,000  Level FlightAware Transoceanic
07:49AM 52.1012 -163.6563 91° East 496 571 35,000  Level FlightAware Transoceanic
07:50AM 52.0982 -163.4274 91° East 496 571 35,000  Level FlightAware Transoceanic
07:51AM 52.0948 -163.1985 91° East 496 571 35,000  Level FlightAware Transoceanic
07:52AM 52.0909 -162.9697 92° East 496 571 35,000  Level FlightAware Transoceanic
07:53AM 52.0827 -162.7537 92° East 496 571 35,000  Level FlightAware Transoceanic
07:54AM 52.0783 -162.5238 92° East 496 571 35,000  Level FlightAware Transoceanic
07:55AM 52.0734 -162.2941 92° East 496 571 35,000  Level FlightAware Transoceanic
07:56AM 52.0681 -162.0643 92° East 496 571 35,000  Level FlightAware Transoceanic
07:57AM 52.0623 -161.8347 92° East 496 571 35,000  Level FlightAware Transoceanic
07:58AM 52.0561 -161.6051 93° East 496 571 35,000  Level FlightAware Transoceanic
07:59AM 52.0494 -161.3756 93° East 496 571 35,000  Level FlightAware Transoceanic
08:00AM 52.0423 -161.1461 93° East 496 571 35,000 -780 Level FlightAware Transoceanic
08:00AM 52.0333 -161.0000 95° East 550 633 34,000  Descending Anchorage Center
08:01AM 52.0347 -160.9167 93° East 496 571 35,000  Climbing FlightAware Transoceanic
08:01AM 52.0167 -160.7667 97° East 530 610 34,000  Descending Anchorage Center
08:02AM 52.0267 -160.6874 93° East 496 571 35,000  Climbing FlightAware Transoceanic
08:02AM 52.0167 -160.5333 90° East 530 610 34,000  Descending Anchorage Center
08:03AM 52.0182 -160.4582 94° East 496 571 35,000 600 Climbing FlightAware Transoceanic
08:04AM 52.0093 -160.2290 94° East 496 571 35,000 -540 Level FlightAware Transoceanic
08:04AM 52.0350 -160.1615 85° East  Level Estimated
08:04AM 52.0000 -160.0000 95° East 542 624 34,000  Level Oakland Oceanic (ODAPS)
08:05AM 52.0000 -160.0000 95° East 496 571 35,000  Climbing FlightAware Transoceanic
08:06AM 51.9667 -159.5333 95° East 542 624 34,000 -180 Descending Oakland Oceanic (ODAPS)
08:11AM 51.8929 -158.3055 97° East 542 624 34,000  Level FlightAware Transoceanic
08:12AM 51.8714 -158.0797 97° East 542 624 34,000  Level FlightAware Transoceanic
08:13AM 51.8538 -157.8381 97° East 542 624 34,000  Level FlightAware Transoceanic
08:13AM 51.8500 -157.7333 97° East 552 635 34,000  Level Oakland Oceanic (ODAPS)
08:14AM 51.8357 -157.5967 97° East 542 624 34,000  Level FlightAware Transoceanic
08:15AM 51.8171 -157.3554 97° East 542 624 34,000  Level FlightAware Transoceanic
08:16AM 51.7980 -157.1144 97° East 542 624 34,000  Level FlightAware Transoceanic
08:17AM 51.7784 -156.8735 98° East 542 624 34,000  Level FlightAware Transoceanic
08:18AM 51.7583 -156.6329 98° East 542 624 34,000  Level FlightAware Transoceanic
08:19AM 51.7377 -156.3925 98° East 542 624 34,000  Level FlightAware Transoceanic
08:20AM 51.7297 -156.2626 98° East 552 635 34,000  Level FlightAware Transoceanic
08:21AM 51.7078 -156.0183 98° East 552 635 34,000  Level FlightAware Transoceanic
08:22AM 51.6855 -155.7742 98° East 552 635 34,000  Level FlightAware Transoceanic
08:23AM 51.6626 -155.5304 99° East 552 635 34,000  Level FlightAware Transoceanic
08:24AM 51.6393 -155.2868 99° East 552 635 34,000  Level FlightAware Transoceanic
08:25AM 51.6154 -155.0434 99° East 552 635 34,000  Level FlightAware Transoceanic
08:26AM 51.5911 -154.8003 99° East 552 635 34,000  Level FlightAware Transoceanic
08:27AM 51.5662 -154.5575 99° East 552 635 34,000  Level FlightAware Transoceanic
08:28AM 51.5409 -154.3149 100° East 552 635 34,000  Level FlightAware Transoceanic
08:29AM 51.5150 -154.0727 100° East 552 635 34,000  Level FlightAware Transoceanic
08:30AM 51.4886 -153.8306 100° East 552 635 34,000  Level FlightAware Transoceanic
08:31AM 51.4618 -153.5889 100° East 552 635 34,000  Level FlightAware Transoceanic
08:32AM 51.4344 -153.3475 100° East 552 635 34,000  Level FlightAware Transoceanic
08:33AM 51.4066 -153.1063 101° East 552 635 34,000  Level FlightAware Transoceanic
08:34AM 51.3782 -152.8655 101° East 552 635 34,000  Level FlightAware Transoceanic
08:35AM 51.3494 -152.6250 101° East 552 635 34,000  Level FlightAware Transoceanic
08:36AM 51.3201 -152.3847 101° East 552 635 34,000  Level FlightAware Transoceanic
08:37AM 51.2902 -152.1448 101° East 552 635 34,000  Level FlightAware Transoceanic
08:38AM 51.2599 -151.9052 102° East 552 635 34,000  Level FlightAware Transoceanic
08:39AM 51.2291 -151.6658 102° East 552 635 34,000  Level FlightAware Transoceanic
08:40AM 51.1979 -151.4269 102° East 552 635 34,000  Level FlightAware Transoceanic
08:40AM 51.1667 -151.1667 102° East 561 646 34,000  Level Oakland Oceanic (ODAPS)
08:41AM 51.1661 -151.1882 102° East 552 635 34,000  Level FlightAware Transoceanic
08:42AM 51.1338 -150.9499 102° East 552 635 34,000  Level FlightAware Transoceanic
08:43AM 51.1011 -150.7119 102° East 552 635 34,000  Level FlightAware Transoceanic
08:44AM 51.0679 -150.4743 103° East 552 635 34,000  Level FlightAware Transoceanic
08:45AM 51.0342 -150.2370 103° East 552 635 34,000  Level FlightAware Transoceanic
08:45AM 51.0000 -150.0000 95° East 547 629 34,000  Level Oakland Oceanic (ODAPS)
08:46AM 50.9863 -149.7576 95° East 561 646 34,000  Level FlightAware Transoceanic
08:47AM 50.9720 -149.5154 95° East 561 646 34,000  Level FlightAware Transoceanic
08:47AM 50.9667 -149.4167 96° East 546 628 34,000  Level Oakland Oceanic (ODAPS)
08:48AM 50.9573 -149.2733 96° East 561 646 34,000  Level FlightAware Transoceanic
08:49AM 50.9421 -149.0313 96° East 561 646 34,000  Level FlightAware Transoceanic
08:50AM 50.9263 -148.7895 96° East 561 646 34,000  Level FlightAware Transoceanic
08:51AM 50.9124 -148.5816 96° East 547 629 34,000  Level FlightAware Transoceanic
08:52AM 50.8961 -148.3458 96° East 547 629 34,000  Level FlightAware Transoceanic
08:53AM 50.8794 -148.1101 97° East 547 629 34,000  Level FlightAware Transoceanic
08:54AM 50.8705 -147.9816 97° East 546 628 34,000  Level FlightAware Transoceanic
08:55AM 50.8528 -147.7431 97° East 546 628 34,000  Level FlightAware Transoceanic
08:56AM 50.8346 -147.5047 97° East 546 628 34,000  Level FlightAware Transoceanic
08:57AM 50.8159 -147.2665 97° East 546 628 34,000  Level FlightAware Transoceanic
08:58AM 50.7967 -147.0285 97° East 546 628 34,000  Level FlightAware Transoceanic
08:59AM 50.7770 -146.7907 98° East 546 628 34,000  Level FlightAware Transoceanic
09:00AM 50.7569 -146.5531 98° East 546 628 34,000  Level FlightAware Transoceanic
09:01AM 50.7362 -146.3157 98° East 546 628 34,000  Level FlightAware Transoceanic
09:02AM 50.7151 -146.0785 98° East 546 628 34,000  Level FlightAware Transoceanic
09:03AM 50.6935 -145.8415 98° East 546 628 34,000  Level FlightAware Transoceanic
09:04AM 50.6715 -145.6048 98° East 546 628 34,000  Level FlightAware Transoceanic
09:05AM 50.6489 -145.3683 99° East 546 628 34,000  Level FlightAware Transoceanic
09:06AM 50.6259 -145.1319 99° East 546 628 34,000  Level FlightAware Transoceanic
09:07AM 50.6023 -144.8959 99° East 546 628 34,000  Level FlightAware Transoceanic
09:07AM 50.5833 -144.7000 99° East 540 621 34,000  Level Oakland Oceanic (ODAPS)
09:08AM 50.5784 -144.6601 99° East 546 628 34,000  Level FlightAware Transoceanic
09:09AM 50.5539 -144.4245 99° East 546 628 34,000  Level FlightAware Transoceanic
09:10AM 50.5290 -144.1891 100° East 546 628 34,000  Level FlightAware Transoceanic
09:11AM 50.5036 -143.9541 100° East 546 628 34,000  Level FlightAware Transoceanic
09:12AM 50.4777 -143.7192 100° East 546 628 34,000  Level FlightAware Transoceanic
09:13AM 50.4283 -143.2781 100° East 540 621 34,000  Level FlightAware Transoceanic
09:14AM 50.4008 -143.0421 100° East 540 621 34,000  Level FlightAware Transoceanic
09:15AM 50.3728 -142.8063 101° East 540 621 34,000  Level FlightAware Transoceanic
09:16AM 50.3443 -142.5708 101° East 540 621 34,000  Level FlightAware Transoceanic
09:17AM 50.3154 -142.3356 101° East 540 621 34,000  Level FlightAware Transoceanic
09:18AM 50.2859 -142.1007 101° East 540 621 34,000  Level FlightAware Transoceanic
09:19AM 50.2560 -141.8660 101° East 540 621 34,000  Level FlightAware Transoceanic
09:20AM 50.2257 -141.6317 102° East 540 621 34,000  Level FlightAware Transoceanic
09:21AM 50.1948 -141.3977 102° East 540 621 34,000  Level FlightAware Transoceanic
09:22AM 50.1635 -141.1639 102° East 540 621 34,000  Level FlightAware Transoceanic
09:23AM 50.1318 -140.9305 102° East 540 621 34,000  Level FlightAware Transoceanic
09:24AM 50.0995 -140.6974 102° East 540 621 34,000  Level FlightAware Transoceanic
09:25AM 50.0668 -140.4646 102° East 540 621 34,000  Level FlightAware Transoceanic
09:26AM 50.0336 -140.2321 103° East 540 621 34,000  Level FlightAware Transoceanic
09:27AM 50.0000 -140.0000 99° East 540 621 34,000  Level FlightAware Transoceanic
09:28AM 49.9783 -139.7803 99° East 540 621 34,000  Level FlightAware Transoceanic
09:29AM 49.9562 -139.5608 99° East 540 621 34,000 2,520 Level FlightAware Transoceanic
09:29AM 50.0000 -140.0000 99° East 524 603 38,000  Climbing Oakland Oceanic (ODAPS)
09:30AM 49.9337 -139.3415 99° East 540 621 34,000 -2,880 Descending FlightAware Transoceanic
09:31AM 49.9108 -139.1224 99° East 540 621 34,000  Level FlightAware Transoceanic
09:32AM 49.8875 -138.9035 99° East 540 621 34,000  Level FlightAware Transoceanic
09:33AM 49.8638 -138.6848 100° East 540 621 34,000 2,280 Level FlightAware Transoceanic
09:33AM 49.8667 -138.6667 100° East 518 596 38,000  Climbing Oakland Oceanic (ODAPS)
09:34AM 49.8396 -138.4663 100° East 540 621 34,000  Descending FlightAware Transoceanic
09:35AM 49.8346 -138.4214 100° East 524 603 38,000 1,980 Climbing FlightAware Transoceanic
09:36AM 49.8092 -138.1968 100° East 524 603 38,000  Level FlightAware Transoceanic
09:37AM 49.7834 -137.9724 100° East 524 603 38,000  Level FlightAware Transoceanic
09:38AM 49.7572 -137.7483 100° East 524 603 38,000  Level FlightAware Transoceanic
09:39AM 49.7305 -137.5244 101° East 524 603 38,000  Level FlightAware Transoceanic
09:40AM 49.7092 -137.3166 101° East 518 596 38,000  Level FlightAware Transoceanic
09:41AM 49.6814 -137.0924 101° East 518 596 38,000  Level FlightAware Transoceanic
09:42AM 49.6532 -136.8686 101° East 518 596 38,000  Level FlightAware Transoceanic
09:43AM 49.6246 -136.6449 101° East 518 596 38,000  Level FlightAware Transoceanic
09:44AM 49.5955 -136.4216 101° East 518 596 38,000  Level FlightAware Transoceanic
09:45AM 49.5660 -136.1985 102° East 518 596 38,000  Level FlightAware Transoceanic
09:46AM 49.5361 -135.9757 102° East 518 596 38,000  Level FlightAware Transoceanic
09:47AM 49.5058 -135.7531 102° East 518 596 38,000  Level FlightAware Transoceanic
09:48AM 49.4750 -135.5309 102° East 518 596 38,000  Level FlightAware Transoceanic
09:49AM 49.4438 -135.3089 102° East 518 596 38,000  Level FlightAware Transoceanic
09:50AM 49.4122 -135.0872 102° East 518 596 38,000  Level FlightAware Transoceanic
09:51AM 49.3801 -134.8657 103° East 518 596 38,000  Level FlightAware Transoceanic
09:52AM 49.3477 -134.6446 103° East 518 596 38,000  Level FlightAware Transoceanic
09:53AM 49.3148 -134.4238 103° East 518 596 38,000  Level FlightAware Transoceanic
09:54AM 49.2815 -134.2032 103° East 518 596 38,000  Level FlightAware Transoceanic
09:55AM 49.2477 -133.9830 103° East 518 596 38,000  Level FlightAware Transoceanic
09:56AM 49.2136 -133.7631 103° East 518 596 38,000  Level FlightAware Transoceanic
09:57AM 49.1790 -133.5435 104° East 518 596 38,000  Level FlightAware Transoceanic
09:58AM 49.1441 -133.3241 104° East 518 596 38,000  Level FlightAware Transoceanic
09:59AM 49.1087 -133.1051 104° East 518 596 38,000  Level FlightAware Transoceanic
10:00AM 49.0728 -132.8864 104° East 518 596 38,000  Level FlightAware Transoceanic
10:00AM 49.0667 -132.8333 105° East 515 593 38,000  Level Oakland Oceanic (ODAPS)
10:01AM 49.0366 -132.6681 104° East 518 596 38,000  Level FlightAware Transoceanic
10:02AM 49.0000 -132.4500 92° East 518 596 38,000  Level FlightAware Transoceanic
10:03AM 48.9950 -132.2436 92° East 518 596 38,000  Level FlightAware Transoceanic
10:04AM 48.9897 -132.0372 92° East 518 596 38,000  Level FlightAware Transoceanic
10:04AM 48.9667 -132.0500 93° East 530 610 38,000  Level Vancouver Center
10:05AM 48.9840 -131.8309 92° East 518 596 38,000  Level FlightAware Transoceanic
10:05AM 48.9667 -131.8167 90° East 520 598 38,000  Level Vancouver Center
10:06AM 48.9779 -131.6246 93° East 518 596 38,000  Level FlightAware Transoceanic
10:06AM 48.9500 -131.5833 96° East 520 598 38,000  Level Vancouver Center
10:07AM 48.9715 -131.4184 93° East 515 593 38,000  Level FlightAware Transoceanic
10:07AM 48.9500 -131.3833 90° East 520 598 38,000  Level Vancouver Center
10:08AM 48.9647 -131.2122 93° East 515 593 38,000  Level FlightAware Transoceanic
10:08AM 48.9500 -131.1500 90° East 520 598 38,000  Level Vancouver Center
10:09AM 48.9575 -131.0061 93° East 515 593 38,000  Level FlightAware Transoceanic
10:09AM 48.9500 -130.9500 90° East 520 598 38,000  Level Vancouver Center
10:10AM 48.9333 -130.7167 96° East 520 598 38,000  Level Vancouver Center
10:11AM 48.9167 -130.5167 97° East 520 598 38,000  Level Vancouver Center
10:12AM 48.8833 -130.2833 102° East 520 598 38,000  Level Vancouver Center
10:13AM 48.8667 -130.0667 97° East 520 598 38,000  Level Vancouver Center
10:14AM 48.8667 -129.8667 90° East 520 598 38,000  Level Vancouver Center
10:15AM 48.8333 -129.6333 102° East 520 598 38,000 -540 Level Vancouver Center
10:16AM 48.8167 -129.4000 96° East 520 598 37,000 -540 Descending Vancouver Center
10:17AM 48.8000 -129.2000 97° East 520 598 37,000  Level Vancouver Center
10:23AM 48.6840 -127.8320 97° East 523 602 37,000  Level FlightAware
10:24AM 48.6670 -127.6800 100° East 524 603 37,000  Level FlightAware
10:24AM 48.6500 -127.5180 99° East 523 602 37,000  Level FlightAware
10:25AM 48.6420 -127.4390 99° East 523 602 37,000  Level FlightAware
10:26AM 48.6170 -127.2190 100° East 521 600 37,000  Level FlightAware
10:26AM 48.6020 -127.0790 99° East 521 600 37,000  Level FlightAware
10:27AM 48.5890 -126.9610 99° East 521 600 37,000  Level FlightAware
10:28AM 48.5690 -126.7860 100° East 519 597 37,000  Level FlightAware
10:29AM 48.5510 -126.6340 100° East 517 595 37,000  Level FlightAware
10:29AM 48.5290 -126.4430 100° East 513 590 37,000  Level FlightAware
10:30AM 48.5090 -126.2780 100° East 512 589 37,000  Level FlightAware
10:31AM 48.4920 -126.1320 100° East 511 588 37,000  Level FlightAware
10:32AM 48.4750 -125.9960 101° East 510 587 37,000  Level FlightAware
10:32AM 48.4560 -125.8320 100° East 509 586 37,000  Level FlightAware
10:33AM 48.4390 -125.7040 101° East 509 586 37,000  Level FlightAware
10:34AM 48.4220 -125.5610 100° East 510 587 37,000  Level FlightAware
10:34AM 48.4020 -125.4080 101° East 512 589 37,000  Level FlightAware
10:35AM 48.3850 -125.2710 101° East 514 592 37,000  Level FlightAware
10:36AM 48.3650 -125.1210 101° East 516 594 37,000 -120 Level FlightAware
10:37AM 48.3420 -124.9450 101° East 518 596 36,900 -900 Descending FlightAware
10:37AM 48.3260 -124.8230 101° East 514 592 35,800 -2,040 Descending FlightAware
10:38AM 48.3050 -124.6680 101° East 498 573 34,200 -1,800 Descending FlightAware
10:39AM 48.2820 -124.5220 103° East 470 541 33,100 -2,040 Descending FlightAware
10:39AM 48.2680 -124.4100 101° East 473 544 31,500 -2,400 Descending FlightAware
10:40AM 48.2530 -124.2860 100° East 460 529 30,100 -2,160 Descending FlightAware
10:41AM 48.2270 -124.1010 102° East 437 503 28,000 -2,160 Descending FlightAware
10:41AM 48.2100 -123.9850 102° East 420 483 26,600 -2,100 Descending FlightAware
10:42AM 48.1920 -123.8680 103° East 404 465 25,200 -2,040 Descending FlightAware
10:43AM 48.1760 -123.7560 102° East 391 450 23,800 -1,980 Descending FlightAware
10:44AM 48.1580 -123.6370 103° East 374 430 22,300 -1,860 Descending FlightAware
10:44AM 48.1440 -123.5420 102° East 364 419 21,200 -1,800 Descending FlightAware
10:45AM 48.1300 -123.4450 102° East 359 413 20,000 -1,860 Descending FlightAware
10:46AM 48.1120 -123.3300 103° East 361 415 18,500 -1,980 Descending FlightAware
10:46AM 48.0970 -123.2260 102° East 358 412 17,100 -1,860 Descending FlightAware
10:47AM 48.0840 -123.1420 103° East 350 403 16,100 -1,740 Descending FlightAware
10:48AM 48.0680 -123.0370 103° East 342 394 14,800 -1,800 Descending FlightAware
10:49AM 48.0520 -122.9360 103° East 336 387 13,500 -1,740 Descending FlightAware
10:49AM 48.0330 -122.8400 106° East 324 373 12,300 -1,140 Descending FlightAware
10:50AM 48.0050 -122.7780 124° Southeast 293 337 12,000 -720 Descending FlightAware
10:51AM 47.9690 -122.7250 135° Southeast 286 329 11,400 -1,260 Descending FlightAware
10:51AM 47.9230 -122.6630 138° Southeast 282 325 10,200 -1,500 Descending FlightAware
10:52AM 47.8960 -122.6250 137° Southeast 278 320 9,600 -1,380 Descending FlightAware
10:52AM 47.8720 -122.5910 136° Southeast 275 316 9,000 -1,500 Descending FlightAware
10:53AM 47.8450 -122.5540 137° Southeast 272 313 8,300 -1,320 Descending FlightAware
10:53AM 47.8220 -122.5230 138° Southeast 268 308 7,800 -1,140 Descending FlightAware
10:54AM 47.7970 -122.4900 138° Southeast 262 302 7,300 -1,140 Descending FlightAware
10:54AM 47.7690 -122.4540 139° Southeast 255 293 6,700 -1,200 Descending FlightAware
10:54AM 47.7580 -122.4390 137° Southeast 251 289 6,500 -1,020 Descending FlightAware
10:55AM 47.7320 -122.4030 137° Southeast 246 283 5,800 -1,380 Descending FlightAware
10:55AM 47.7110 -122.3450 118° Southeast 240 276 4,900 -1,440 Descending FlightAware
10:56AM 47.6970 -122.3300 144° Southeast 225 259 4,700 -780 Descending FlightAware
10:56AM 47.6760 -122.3120 150° Southeast 208 239 4,400 -840 Descending FlightAware
10:56AM 47.6580 -122.3100 176° South 193 222 4,100 -420 Descending FlightAware
10:57AM 47.6360 -122.3100 180° South 190 219 4,100 -720 Level FlightAware
10:57AM 47.6180 -122.3100 180° South 168 193 3,500 -1,200 Descending FlightAware
10:58AM 47.5970 -122.3100 180° South 159 183 3,100 -540 Descending FlightAware
10:58AM 47.5730 -122.3100 180° South 150 173 2,900 -840 Descending FlightAware
10:59AM 47.5400 -122.3117 180° South 142 163 2,000 -1,200 Descending Seattle Center